Time;durP1;ratioP1;P1;durP2;ratioP2;P2;SDS_P1;SDS_P2;PMS_P1;PMS_P2;Temp;Humidity;BMP_temperature;BMP_pressure;BME280_temperature;BME280_humidity;BME280_pressure;Samples;Min_cycle;Max_cycle;Signal;HPM_P1;HPM_P2
2023/07/16 00:00:18;;;;;;;21.33;15.20;;;19.30;59.90;;;;;;5107740;28;20024;-74
2023/07/16 00:02:43;;;;;;;23.52;18.63;;;19.30;59.80;;;;;;5114091;28;20340;-74
2023/07/16 00:05:09;;;;;;;16.50;11.85;;;19.20;59.90;;;;;;5109104;28;20024;-74
2023/07/16 00:07:35;;;;;;;20.30;14.52;;;19.20;61.00;;;;;;5112326;27;20015;-79
2023/07/16 00:10:00;;;;;;;9.52;6.35;;;19.20;61.30;;;;;;5105312;27;20379;-78
2023/07/16 00:12:26;;;;;;;7.03;4.10;;;18.90;66.10;;;;;;5119461;27;20031;-78
2023/07/16 00:14:51;;;;;;;5.80;3.42;;;18.70;69.90;;;;;;5116485;27;20024;-78
2023/07/16 00:17:17;;;;;;;5.65;3.22;;;18.60;73.70;;;;;;5109591;27;20084;-78
2023/07/16 00:19:42;;;;;;;5.70;2.75;;;18.50;73.10;;;;;;5117309;27;20028;-77
2023/07/16 00:22:08;;;;;;;5.68;2.90;;;18.40;72.00;;;;;;5115978;27;20039;-78
2023/07/16 00:24:39;;;;;;;6.43;3.53;;;18.30;70.80;;;;;;5107078;27;20067;-78
2023/07/16 00:27:05;;;;;;;5.50;3.53;;;18.30;69.20;;;;;;5108321;28;20096;-77
2023/07/16 00:29:30;;;;;;;6.38;3.53;;;18.30;68.10;;;;;;5104911;27;20032;-78
2023/07/16 00:31:59;;;;;;;4.68;2.63;;;18.30;66.20;;;;;;5111667;27;20328;-78
2023/07/16 00:34:28;;;;;;;4.43;2.30;;;18.30;68.70;;;;;;5115054;28;20031;-79
2023/07/16 00:36:53;;;;;;;3.65;1.77;;;18.10;72.40;;;;;;5107038;28;20044;-80
2023/07/16 00:39:19;;;;;;;4.45;1.50;;;17.90;79.60;;;;;;5110149;27;20038;-80
2023/07/16 00:41:44;;;;;;;3.00;1.50;;;17.70;85.00;;;;;;5116221;27;20327;-80
2023/07/16 00:44:10;;;;;;;4.45;1.63;;;17.50;87.10;;;;;;5114427;28;20033;-80
2023/07/16 00:46:36;;;;;;;4.38;1.88;;;17.40;87.60;;;;;;5115011;27;20102;-79
2023/07/16 00:49:02;;;;;;;4.43;1.70;;;17.20;88.50;;;;;;5106343;27;20101;-79
2023/07/16 00:51:31;;;;;;;3.45;1.73;;;17.00;87.40;;;;;;5112027;28;20040;-79
2023/07/16 00:53:56;;;;;;;4.07;1.75;;;17.00;83.40;;;;;;5102762;27;20028;-79
2023/07/16 00:56:22;;;;;;;3.33;1.52;;;16.90;84.70;;;;;;5104151;28;20023;-79
2023/07/16 00:58:48;;;;;;;5.22;1.90;;;16.70;88.30;;;;;;5115100;27;20085;-80
2023/07/16 01:01:16;;;;;;;3.50;1.60;;;16.60;90.50;;;;;;5097840;28;20418;-78
2023/07/16 01:03:42;;;;;;;4.80;1.83;;;16.50;91.80;;;;;;5104407;28;20094;-79
2023/07/16 01:06:29;;;;;;;3.63;1.95;;;16.40;93.40;;;;;;5103454;28;20464;-80
2023/07/16 01:09:00;;;;;;;3.22;1.80;;;16.30;90.70;;;;;;5105290;28;20362;-80
2023/07/16 01:11:27;;;;;;;3.40;1.83;;;16.20;90.60;;;;;;5117053;28;20393;-80
2023/07/16 01:13:53;;;;;;;3.75;1.92;;;16.20;89.10;;;;;;5109196;28;20093;-81
2023/07/16 01:16:24;;;;;;;4.53;2.20;;;16.20;88.20;;;;;;5115302;28;20032;-81
2023/07/16 01:18:50;;;;;;;3.15;1.70;;;16.20;84.80;;;;;;5110095;28;21021;-81
2023/07/16 01:21:19;;;;;;;3.30;1.70;;;16.10;85.20;;;;;;5100206;28;20024;-81
2023/07/16 01:24:04;;;;;;;3.83;1.60;;;16.20;83.40;;;;;;5103604;28;20112;-82
2023/07/16 01:26:48;;;;;;;3.33;1.70;;;16.20;87.30;;;;;;5109177;28;20063;-82
2023/07/16 01:29:32;;;;;;;3.80;1.70;;;16.20;88.90;;;;;;5111766;28;20023;-82
2023/07/16 01:32:01;;;;;;;3.80;1.60;;;16.20;88.70;;;;;;5116283;28;20076;-82
2023/07/16 01:34:29;;;;;;;3.00;1.50;;;16.30;88.60;;;;;;5113522;28;20153;-82
2023/07/16 01:36:54;;;;;;;3.03;1.42;;;16.30;90.10;;;;;;5097410;28;20150;-82
2023/07/16 01:39:21;;;;;;;4.78;1.50;;;16.30;90.20;;;;;;5110843;28;20110;-83
2023/07/16 01:41:46;;;;;;;3.35;1.63;;;16.30;90.20;;;;;;5115796;28;20024;-83
2023/07/16 01:44:12;;;;;;;3.30;1.80;;;16.30;88.30;;;;;;5114766;28;20024;-83
2023/07/16 01:46:37;;;;;;;3.53;1.75;;;16.40;84.50;;;;;;5116165;28;20027;-83
2023/07/16 01:49:03;;;;;;;3.83;2.20;;;16.40;85.10;;;;;;5114337;27;20440;-84
2023/07/16 01:51:29;;;;;;;4.10;2.22;;;16.40;84.10;;;;;;5099648;28;20099;-84
2023/07/16 01:53:54;;;;;;;3.42;1.60;;;16.40;81.70;;;;;;5101302;27;20019;-84
2023/07/16 01:56:20;;;;;;;3.60;1.95;;;16.40;80.50;;;;;;5106066;28;20024;-84
2023/07/16 01:58:45;;;;;;;4.55;2.28;;;16.50;80.60;;;;;;5110374;27;20024;-84
2023/07/16 02:01:11;;;;;;;3.60;2.08;;;16.50;79.00;;;;;;5114731;28;20045;-83
2023/07/16 02:03:36;;;;;;;3.75;1.80;;;16.50;78.10;;;;;;5102115;28;20035;-84
2023/07/16 02:06:02;;;;;;;3.97;2.30;;;16.40;77.10;;;;;;5111535;28;20031;-84
2023/07/16 02:08:28;;;;;;;4.75;1.80;;;16.30;76.20;;;;;;5095691;28;20111;-84
2023/07/16 02:10:56;;;;;;;8.93;2.45;;;16.30;75.30;;;;;;5111992;28;20043;-84
2023/07/16 02:13:22;;;;;;;4.85;2.08;;;16.40;74.00;;;;;;5113471;28;20020;-84
2023/07/16 02:15:47;;;;;;;3.25;1.70;;;16.40;73.50;;;;;;5112037;28;20024;-84
2023/07/16 02:18:15;;;;;;;6.63;2.25;;;16.40;73.90;;;;;;5114481;28;20024;-84
2023/07/16 02:20:42;;;;;;;3.85;1.90;;;16.50;73.00;;;;;;5107765;28;20107;-84
2023/07/16 02:23:08;;;;;;;5.85;2.10;;;16.50;72.90;;;;;;5102622;28;20028;-84
2023/07/16 02:25:34;;;;;;;3.72;2.13;;;16.50;73.60;;;;;;5102449;28;20348;-84
2023/07/16 02:27:59;;;;;;;5.88;2.38;;;16.40;73.90;;;;;;5111254;28;20104;-84
2023/07/16 02:30:25;;;;;;;4.10;2.03;;;16.30;73.30;;;;;;5111230;28;20110;-85
2023/07/16 02:32:50;;;;;;;3.95;1.92;;;16.30;72.40;;;;;;5114375;28;20039;-84
2023/07/16 02:35:16;;;;;;;5.28;2.60;;;16.30;72.70;;;;;;5108080;28;20377;-85
2023/07/16 02:37:42;;;;;;;4.72;2.08;;;16.20;72.50;;;;;;5104083;28;20137;-85
2023/07/16 02:40:08;;;;;;;4.05;1.90;;;16.20;71.80;;;;;;5106497;28;20094;-84
2023/07/16 02:42:34;;;;;;;5.28;2.10;;;16.10;71.90;;;;;;5112089;28;20020;-85
2023/07/16 02:44:59;;;;;;;8.05;2.72;;;16.10;70.30;;;;;;5099279;28;20146;-85
2023/07/16 02:47:25;;;;;;;4.85;2.42;;;16.10;71.20;;;;;;5095814;28;20027;-85
2023/07/16 02:49:52;;;;;;;4.55;2.30;;;16.00;70.60;;;;;;5103467;28;20063;-85
2023/07/16 02:52:17;;;;;;;5.15;2.50;;;16.00;69.20;;;;;;5111671;28;20428;-85
2023/07/16 02:54:43;;;;;;;3.70;1.92;;;16.00;70.80;;;;;;5114644;28;20107;-86
2023/07/16 02:57:09;;;;;;;5.80;2.10;;;16.00;72.30;;;;;;5115096;28;20045;-86
2023/07/16 02:59:34;;;;;;;7.20;2.38;;;16.00;72.40;;;;;;5114127;28;20312;-86
2023/07/16 03:02:01;;;;;;;4.38;2.05;;;16.00;71.60;;;;;;5114122;28;20027;-86
2023/07/16 03:04:27;;;;;;;5.10;2.10;;;16.00;73.10;;;;;;5108932;28;20343;-86
2023/07/16 03:06:52;;;;;;;5.40;2.33;;;16.00;75.80;;;;;;5094398;28;20036;-86
2023/07/16 03:09:18;;;;;;;5.88;2.08;;;16.00;78.70;;;;;;5103106;28;20055;-85
2023/07/16 03:11:43;;;;;;;4.22;2.30;;;16.00;77.50;;;;;;5115635;28;20015;-86
2023/07/16 03:14:09;;;;;;;4.93;2.15;;;16.00;79.40;;;;;;5112008;28;20094;-86
2023/07/16 03:16:35;;;;;;;4.28;2.15;;;16.00;80.50;;;;;;5111038;28;20026;-84
2023/07/16 03:19:00;;;;;;;4.13;1.90;;;16.00;84.00;;;;;;5128405;27;20023;-84
2023/07/16 03:21:26;;;;;;;4.05;2.20;;;16.00;88.20;;;;;;5115823;28;20034;-84
2023/07/16 03:23:52;;;;;;;4.72;2.13;;;15.90;88.90;;;;;;5114475;27;20133;-85
2023/07/16 03:26:17;;;;;;;6.00;2.67;;;15.90;87.50;;;;;;5114787;28;20098;-85
2023/07/16 03:28:43;;;;;;;5.15;2.03;;;15.90;87.40;;;;;;5106477;27;20400;-86
2023/07/16 03:31:08;;;;;;;4.80;2.10;;;15.80;86.30;;;;;;5109605;27;20020;-87
2023/07/16 03:33:34;;;;;;;3.58;2.03;;;15.80;86.20;;;;;;5114112;27;20043;-88
2023/07/16 03:36:00;;;;;;;4.57;2.00;;;15.80;86.50;;;;;;5115623;27;20047;-88
2023/07/16 03:38:25;;;;;;;5.00;2.15;;;15.80;85.50;;;;;;5112820;27;20072;-87
2023/07/16 03:40:51;;;;;;;4.47;2.30;;;15.90;85.80;;;;;;5104763;27;20371;-86
2023/07/16 03:43:17;;;;;;;4.82;2.05;;;15.90;88.20;;;;;;5114737;28;20035;-88
2023/07/16 03:45:43;;;;;;;3.67;2.15;;;15.90;88.40;;;;;;5116517;28;20035;-88
2023/07/16 03:48:09;;;;;;;4.40;2.28;;;15.90;88.80;;;;;;5114140;27;20024;-88
2023/07/16 03:50:35;;;;;;;5.40;2.05;;;15.90;89.20;;;;;;5114242;27;20104;-88
2023/07/16 03:53:02;;;;;;;5.30;2.50;;;15.90;88.10;;;;;;5117517;27;20027;-89
2023/07/16 03:55:29;;;;;;;4.55;1.95;;;15.90;88.70;;;;;;5102908;27;20309;-88
2023/07/16 03:57:54;;;;;;;5.82;2.28;;;15.80;90.30;;;;;;5104981;27;20366;-89
2023/07/16 04:00:20;;;;;;;4.55;2.08;;;15.70;89.90;;;;;;5115740;27;20035;-88
2023/07/16 04:02:45;;;;;;;6.25;1.90;;;15.80;89.70;;;;;;5116540;27;20081;-88
2023/07/16 04:05:11;;;;;;;4.57;2.13;;;15.90;90.30;;;;;;5115553;28;20324;-88
2023/07/16 04:07:37;;;;;;;8.98;2.30;;;15.90;92.70;;;;;;5114926;27;20027;-89
2023/07/16 04:10:03;;;;;;;3.92;2.05;;;15.90;92.50;;;;;;5113904;27;20355;-88
2023/07/16 04:12:28;;;;;;;4.78;2.10;;;15.90;91.70;;;;;;5109031;28;20433;-88
2023/07/16 04:14:56;;;;;;;4.60;2.15;;;15.90;93.80;;;;;;5116259;27;20107;-89
2023/07/16 04:17:22;;;;;;;4.35;1.92;;;15.90;93.00;;;;;;5110886;28;20062;-88
2023/07/16 04:19:50;;;;;;;7.13;2.10;;;16.00;93.50;;;;;;5110194;27;20049;-88
2023/07/16 04:22:15;;;;;;;4.13;1.83;;;16.00;94.20;;;;;;5114407;28;20031;-89
2023/07/16 04:24:41;;;;;;;5.72;1.92;;;16.00;95.40;;;;;;5115400;28;20046;-89
2023/07/16 04:27:07;;;;;;;4.35;1.92;;;16.10;95.90;;;;;;5117495;27;20109;-89
2023/07/16 04:29:33;;;;;;;5.97;2.63;;;16.20;97.60;;;;;;5126169;27;20032;-89
2023/07/16 04:31:58;;;;;;;5.32;1.95;;;16.10;97.70;;;;;;5116997;28;20024;-89
2023/07/16 04:34:24;;;;;;;4.22;1.88;;;16.10;97.50;;;;;;5110606;28;20524;-89
2023/07/16 04:36:49;;;;;;;4.32;2.03;;;16.10;97.90;;;;;;5114330;28;20106;-89
2023/07/16 04:39:15;;;;;;;4.57;1.80;;;16.10;97.60;;;;;;5098123;28;20451;-87
2023/07/16 04:41:41;;;;;;;5.82;2.05;;;16.10;97.70;;;;;;5115775;27;20039;-89
2023/07/16 04:44:06;;;;;;;4.38;1.88;;;16.10;98.00;;;;;;5117569;28;20029;-89
2023/07/16 04:46:32;;;;;;;4.32;2.00;;;16.10;97.20;;;;;;5115097;27;20133;-90
2023/07/16 04:48:58;;;;;;;4.28;1.90;;;16.10;97.40;;;;;;5107594;28;20435;-89
2023/07/16 04:51:23;;;;;;;3.78;1.90;;;16.10;97.70;;;;;;5113162;28;20102;-88
2023/07/16 04:53:50;;;;;;;3.42;1.92;;;16.10;97.30;;;;;;5100951;28;20466;-89
2023/07/16 04:56:16;;;;;;;6.72;2.28;;;16.10;97.00;;;;;;5113879;28;20362;-89
2023/07/16 04:58:42;;;;;;;4.32;1.92;;;16.00;96.40;;;;;;5103382;28;20031;-88
2023/07/16 05:01:09;;;;;;;4.25;1.83;;;16.00;96.30;;;;;;5096830;28;20032;-89
2023/07/16 05:03:34;;;;;;;5.78;1.90;;;16.10;97.40;;;;;;5097358;28;20051;-89
2023/07/16 05:06:00;;;;;;;4.07;1.75;;;16.20;97.40;;;;;;5104715;28;20059;-88
2023/07/16 05:08:26;;;;;;;7.03;1.95;;;16.30;97.70;;;;;;5096967;28;20024;-88
2023/07/16 05:10:51;;;;;;;4.30;1.90;;;16.50;98.00;;;;;;5110646;28;20028;-89
2023/07/16 05:13:17;;;;;;;4.90;1.60;;;16.60;98.00;;;;;;5116508;28;20020;-87
2023/07/16 05:15:45;;;;;;;4.60;1.95;;;16.60;98.00;;;;;;5106814;28;20032;-89
2023/07/16 05:18:11;;;;;;;4.90;2.20;;;16.70;97.10;;;;;;5113266;27;20022;-88
2023/07/16 05:20:37;;;;;;;7.05;1.98;;;16.70;95.50;;;;;;5113390;28;20381;-89
2023/07/16 05:23:02;;;;;;;5.78;2.40;;;16.80;95.00;;;;;;5128746;27;20114;-88
2023/07/16 05:25:28;;;;;;;6.47;2.20;;;16.90;93.70;;;;;;5114251;28;20023;-88
2023/07/16 05:27:54;;;;;;;5.65;2.00;;;16.80;94.10;;;;;;5101828;28;20462;-88
2023/07/16 05:30:20;;;;;;;6.05;2.03;;;16.90;93.60;;;;;;5109308;28;20055;-89
2023/07/16 05:32:45;;;;;;;5.47;1.90;;;16.90;98.00;;;;;;5110479;27;20426;-88
2023/07/16 05:35:11;;;;;;;4.85;1.92;;;16.90;98.00;;;;;;5117872;27;20028;-87
2023/07/16 05:37:37;;;;;;;6.03;2.08;;;17.00;97.20;;;;;;5105603;27;20051;-88
2023/07/16 05:40:03;;;;;;;4.22;1.70;;;17.20;98.00;;;;;;5115040;28;20320;-89
2023/07/16 05:42:29;;;;;;;8.48;2.03;;;17.50;98.00;;;;;;5107493;27;20402;-88
2023/07/16 05:44:57;;;;;;;6.38;2.15;;;17.60;98.00;;;;;;5110930;28;20093;-88
2023/07/16 05:47:23;;;;;;;3.72;1.80;;;17.50;98.00;;;;;;5111016;28;20095;-88
2023/07/16 05:49:48;;;;;;;6.18;2.25;;;17.40;98.00;;;;;;5114420;28;20028;-89
2023/07/16 05:52:14;;;;;;;6.43;1.80;;;17.40;98.00;;;;;;5109956;28;20024;-88
2023/07/16 05:54:40;;;;;;;4.50;1.95;;;17.50;98.00;;;;;;5109118;27;20114;-88
2023/07/16 05:57:06;;;;;;;5.88;1.95;;;17.60;98.00;;;;;;5113347;28;20008;-89
2023/07/16 05:59:36;;;;;;;4.90;1.98;;;17.60;98.00;;;;;;5105335;28;20045;-88
2023/07/16 06:02:01;;;;;;;4.68;1.90;;;17.60;98.00;;;;;;5112307;28;20443;-89
2023/07/16 06:04:27;;;;;;;5.68;2.20;;;17.60;98.00;;;;;;5104017;28;20032;-89
2023/07/16 06:06:53;;;;;;;4.57;1.63;;;17.80;98.00;;;;;;5104382;28;20028;-88
2023/07/16 06:09:19;;;;;;;4.68;1.58;;;17.80;98.00;;;;;;5102606;28;20031;-88
2023/07/16 06:11:49;;;;;;;6.30;1.90;;;18.00;97.80;;;;;;5099782;28;20078;-86
2023/07/16 06:14:15;;;;;;;6.18;2.08;;;18.00;98.00;;;;;;5108779;27;20126;-87
2023/07/16 06:16:40;;;;;;;6.38;2.00;;;17.90;98.00;;;;;;5109469;28;20110;-86
2023/07/16 06:19:06;;;;;;;6.25;1.95;;;17.70;98.00;;;;;;5119523;27;20480;-86
2023/07/16 06:21:32;;;;;;;7.47;2.25;;;17.60;98.00;;;;;;5113522;28;20027;-86
2023/07/16 06:23:58;;;;;;;3.47;1.63;;;17.50;98.00;;;;;;5111389;27;20019;-87
2023/07/16 06:26:24;;;;;;;4.85;1.95;;;17.30;98.00;;;;;;5113947;28;20049;-87
2023/07/16 06:28:49;;;;;;;4.68;2.20;;;17.20;97.70;;;;;;5109519;28;20031;-87
2023/07/16 06:31:18;;;;;;;5.78;2.15;;;17.30;98.00;;;;;;5104754;28;20063;-88
2023/07/16 06:33:46;;;;;;;6.07;2.00;;;17.40;98.00;;;;;;5106239;27;20038;-88
2023/07/16 06:36:12;;;;;;;4.85;2.10;;;17.60;98.00;;;;;;5108737;28;20036;-87
2023/07/16 06:38:38;;;;;;;7.50;2.03;;;17.80;98.00;;;;;;5112232;28;20122;-89
2023/07/16 06:41:04;;;;;;;6.53;1.83;;;18.00;98.00;;;;;;5098551;28;20349;-88
2023/07/16 06:43:29;;;;;;;4.88;1.98;;;18.10;98.00;;;;;;5115786;28;20023;-89
2023/07/16 06:45:55;;;;;;;5.40;1.90;;;18.50;98.00;;;;;;5112553;28;20031;-88
2023/07/16 06:48:21;;;;;;;5.75;2.03;;;19.00;98.00;;;;;;5112426;28;20069;-88
2023/07/16 06:50:46;;;;;;;4.80;1.80;;;18.90;97.00;;;;;;5103566;28;20096;-77
2023/07/16 06:53:12;;;;;;;5.18;2.10;;;19.10;97.50;;;;;;5101008;28;20029;-88
2023/07/16 06:55:37;;;;;;;4.07;1.70;;;19.20;95.90;;;;;;5102204;28;20027;-88
2023/07/16 06:58:03;;;;;;;4.63;2.10;;;19.10;96.50;;;;;;5105936;27;20282;-87
2023/07/16 07:00:29;;;;;;;4.40;1.70;;;19.00;96.90;;;;;;5111560;27;20085;-88
2023/07/16 07:02:57;;;;;;;4.78;2.05;;;18.90;96.10;;;;;;5117376;28;20031;-88
2023/07/16 07:05:23;;;;;;;7.20;2.13;;;18.70;96.30;;;;;;5118661;27;20019;-88
2023/07/16 07:07:49;;;;;;;4.68;2.25;;;18.50;97.00;;;;;;5118711;28;20035;-89
2023/07/16 07:10:15;;;;;;;6.65;2.10;;;18.30;97.40;;;;;;5109882;28;20286;-88
2023/07/16 07:12:40;;;;;;;6.07;2.38;;;18.00;98.00;;;;;;5099675;28;20032;-88
2023/07/16 07:15:09;;;;;;;5.25;2.00;;;17.90;98.00;;;;;;5099710;28;20027;-86
2023/07/16 07:17:35;;;;;;;6.30;2.03;;;17.90;98.00;;;;;;5111310;28;20085;-87
2023/07/16 07:20:07;;;;;;;7.05;2.13;;;18.10;98.00;;;;;;5117538;28;20027;-87
2023/07/16 07:22:33;;;;;;;5.88;2.15;;;18.30;98.00;;;;;;5113160;28;20360;-86
2023/07/16 07:24:59;;;;;;;4.80;2.03;;;18.30;97.90;;;;;;5113165;28;20058;-87
2023/07/16 07:27:24;;;;;;;5.93;2.00;;;18.50;97.40;;;;;;5115130;28;20036;-86
2023/07/16 07:29:51;;;;;;;5.90;2.50;;;18.60;97.40;;;;;;5106922;28;20051;-87
2023/07/16 07:32:19;;;;;;;5.57;2.30;;;18.50;97.50;;;;;;5108469;28;20012;-87
2023/07/16 07:34:45;;;;;;;6.38;2.28;;;18.40;97.70;;;;;;5116857;28;20035;-87
2023/07/16 07:37:10;;;;;;;6.22;2.05;;;18.40;97.30;;;;;;5102628;28;20036;-87
2023/07/16 07:39:36;;;;;;;7.50;1.98;;;18.60;97.00;;;;;;5100283;28;20032;-87
2023/07/16 07:42:01;;;;;;;3.58;1.70;;;18.90;96.10;;;;;;5109461;28;20034;-87
2023/07/16 07:44:27;;;;;;;8.60;2.10;;;19.50;94.70;;;;;;5113854;28;20038;-89
2023/07/16 07:46:52;;;;;;;5.63;2.10;;;19.40;93.20;;;;;;5119055;28;20027;-86
2023/07/16 07:49:18;;;;;;;7.32;2.17;;;19.10;94.00;;;;;;5118761;28;20145;-87
2023/07/16 07:51:44;;;;;;;4.10;2.00;;;19.10;94.20;;;;;;5111474;27;20024;-87
2023/07/16 07:54:09;;;;;;;4.72;2.08;;;19.20;92.60;;;;;;5100841;28;20020;-86
2023/07/16 07:56:35;;;;;;;5.57;2.00;;;19.10;92.30;;;;;;5102506;28;20069;-88
2023/07/16 07:59:01;;;;;;;4.65;1.77;;;20.00;91.00;;;;;;5106285;28;20024;-87
2023/07/16 08:01:27;;;;;;;4.60;1.73;;;20.80;88.90;;;;;;5111298;28;20028;-87
2023/07/16 08:03:52;;;;;;;8.27;2.55;;;21.00;87.80;;;;;;5118398;28;20031;-88
2023/07/16 08:06:18;;;;;;;6.07;2.13;;;21.50;86.50;;;;;;5096874;28;20024;-86
2023/07/16 08:08:43;;;;;;;5.95;2.20;;;21.90;84.80;;;;;;5104749;28;20073;-87
2023/07/16 08:11:09;;;;;;;6.30;2.00;;;22.50;82.70;;;;;;5121939;27;20035;-87
2023/07/16 08:13:34;;;;;;;6.38;2.40;;;22.70;81.70;;;;;;5117900;27;20028;-86
2023/07/16 08:16:00;;;;;;;4.20;1.60;;;22.50;80.70;;;;;;5118034;28;20028;-86
2023/07/16 08:18:26;;;;;;;5.43;1.58;;;22.70;80.40;;;;;;5118009;28;20356;-87
2023/07/16 08:20:52;;;;;;;5.25;1.70;;;23.30;78.30;;;;;;5113844;28;20115;-86
2023/07/16 08:23:17;;;;;;;6.75;2.10;;;23.80;78.20;;;;;;5111753;27;20028;-87
2023/07/16 08:25:44;;;;;;;4.78;2.10;;;24.30;75.70;;;;;;5109355;28;20028;-86
2023/07/16 08:28:09;;;;;;;6.00;2.03;;;24.30;75.20;;;;;;5128909;27;20076;-86
2023/07/16 08:30:35;;;;;;;5.35;2.38;;;25.00;74.60;;;;;;5121259;27;20019;-86
2023/07/16 08:33:01;;;;;;;9.20;2.15;;;25.60;72.40;;;;;;5101639;28;20036;-86
2023/07/16 08:35:29;;;;;;;7.00;1.90;;;26.30;73.00;;;;;;5116427;28;20319;-86
2023/07/16 08:37:55;;;;;;;7.20;2.28;;;25.50;71.70;;;;;;5118241;28;20042;-85
2023/07/16 08:40:21;;;;;;;5.85;1.90;;;24.40;75.20;;;;;;5115782;28;20020;-86
2023/07/16 08:42:48;;;;;;;5.72;2.08;;;25.00;75.20;;;;;;5118037;28;20023;-85
2023/07/16 08:45:16;;;;;;;5.10;2.10;;;25.70;71.90;;;;;;5117146;28;20031;-85
2023/07/16 08:47:44;;;;;;;7.38;1.92;;;25.50;71.70;;;;;;5104156;28;20028;-85
2023/07/16 08:50:11;;;;;;;5.47;1.90;;;24.80;72.60;;;;;;5112120;28;20023;-85
2023/07/16 08:52:38;;;;;;;5.22;2.08;;;24.10;75.30;;;;;;5107330;28;20019;-86
2023/07/16 08:55:05;;;;;;;4.93;1.92;;;24.00;75.10;;;;;;5103214;28;20023;-86
2023/07/16 08:57:31;;;;;;;8.43;2.15;;;23.20;76.00;;;;;;5097013;28;20095;-86
2023/07/16 08:59:57;;;;;;;3.75;1.83;;;22.70;77.50;;;;;;5116474;28;20168;-87
2023/07/16 09:02:23;;;;;;;4.60;1.83;;;22.80;77.40;;;;;;5117943;28;20096;-86
2023/07/16 09:04:51;;;;;;;4.93;1.77;;;23.70;76.10;;;;;;5117644;27;20063;-85
2023/07/16 09:07:17;;;;;;;4.90;1.65;;;24.40;75.90;;;;;;5116323;27;20439;-84
2023/07/16 09:09:42;;;;;;;4.60;1.70;;;25.40;74.40;;;;;;5107822;28;20028;-84
2023/07/16 09:12:12;;;;;;;8.35;2.25;;;25.30;72.80;;;;;;5106437;28;20024;-84
2023/07/16 09:14:37;;;;;;;7.55;2.00;;;24.40;74.30;;;;;;5116372;28;20019;-84
2023/07/16 09:17:03;;;;;;;6.07;2.22;;;23.60;77.40;;;;;;5117707;28;20042;-84
2023/07/16 09:19:32;;;;;;;8.65;2.08;;;23.90;76.60;;;;;;5114295;28;20024;-86
2023/07/16 09:21:57;;;;;;;6.68;1.92;;;24.70;75.80;;;;;;5111826;28;20155;-85
2023/07/16 09:24:23;;;;;;;4.70;1.63;;;24.40;74.60;;;;;;5110295;28;20024;-86
2023/07/16 09:26:54;;;;;;;5.72;2.15;;;24.60;75.60;;;;;;5110091;28;20023;-84
2023/07/16 09:29:20;;;;;;;6.03;2.10;;;24.60;74.30;;;;;;5115873;28;20485;-85
2023/07/16 09:31:54;;;;;;;5.15;1.80;;;24.80;71.90;;;;;;5114788;28;20028;-85
2023/07/16 09:34:19;;;;;;;6.45;1.83;;;25.20;73.30;;;;;;5108926;28;20050;-86
2023/07/16 09:36:48;;;;;;;8.05;2.40;;;25.80;71.50;;;;;;5108727;28;20040;-86
2023/07/16 09:39:21;;;;;;;5.03;1.77;;;25.80;71.00;;;;;;5108710;28;20073;-86
2023/07/16 09:41:53;;;;;;;5.10;1.70;;;25.20;71.10;;;;;;5096498;28;20028;-85
2023/07/16 09:44:19;;;;;;;5.00;1.45;;;25.10;74.00;;;;;;5099296;28;20024;-84
2023/07/16 09:46:46;;;;;;;5.03;1.73;;;25.30;71.00;;;;;;5104479;28;20039;-84
2023/07/16 09:49:11;;;;;;;6.25;2.00;;;26.10;70.80;;;;;;5116943;28;20027;-83
2023/07/16 09:51:38;;;;;;;4.97;1.80;;;26.80;67.80;;;;;;5114611;28;20022;-84
2023/07/16 09:54:05;;;;;;;7.45;1.98;;;25.50;69.70;;;;;;5098972;28;20035;-84
2023/07/16 09:56:39;;;;;;;5.97;1.90;;;25.50;70.40;;;;;;5116658;28;20420;-84
2023/07/16 09:59:09;;;;;;;5.35;2.10;;;25.90;70.10;;;;;;5114958;28;20019;-84
2023/07/16 10:01:38;;;;;;;7.93;2.00;;;26.40;70.00;;;;;;5107528;28;20028;-84
2023/07/16 10:04:20;;;;;;;4.57;1.80;;;26.40;68.70;;;;;;5103649;28;20020;-84
2023/07/16 10:06:59;;;;;;;5.13;2.00;;;27.20;70.70;;;;;;5113967;28;20057;-85
2023/07/16 10:09:51;;;;;;;3.90;1.80;;;27.80;65.60;;;;;;5116452;28;20436;-83
2023/07/16 10:12:18;;;;;;;5.50;2.10;;;27.30;69.30;;;;;;5114297;28;20027;-85
2023/07/16 10:14:50;;;;;;;6.55;1.98;;;27.00;67.20;;;;;;5116061;28;20075;-84
2023/07/16 10:17:20;;;;;;;7.85;2.05;;;25.90;70.10;;;;;;5104615;28;20131;-83
2023/07/16 10:19:48;;;;;;;4.53;1.80;;;26.10;69.20;;;;;;5103813;28;20425;-83
2023/07/16 10:22:14;;;;;;;6.65;1.52;;;26.10;69.40;;;;;;5113150;28;20035;-84
2023/07/16 10:24:40;;;;;;;5.07;1.88;;;26.20;69.50;;;;;;5116011;28;20028;-84
2023/07/16 10:27:06;;;;;;;6.43;2.05;;;25.80;69.80;;;;;;5103286;28;20094;-83
2023/07/16 10:29:32;;;;;;;7.75;2.30;;;26.40;69.80;;;;;;5094455;28;20070;-84
2023/07/16 10:31:58;;;;;;;5.70;2.13;;;26.40;67.50;;;;;;5107287;28;20053;-84
2023/07/16 10:34:26;;;;;;;7.65;1.90;;;26.60;67.70;;;;;;5106616;28;20172;-85
2023/07/16 10:36:51;;;;;;;6.15;2.10;;;27.10;66.60;;;;;;5094848;28;20056;-83
2023/07/16 10:39:17;;;;;;;6.68;2.00;;;26.60;67.00;;;;;;5097202;28;20054;-85
2023/07/16 10:41:43;;;;;;;8.07;2.38;;;26.70;67.70;;;;;;5102329;28;20032;-84
2023/07/16 10:44:09;;;;;;;6.57;2.28;;;26.00;69.50;;;;;;5104617;28;20868;-84
2023/07/16 10:46:36;;;;;;;6.78;2.38;;;25.80;70.30;;;;;;5109425;28;20034;-84
2023/07/16 10:49:02;;;;;;;5.63;1.88;;;25.90;71.80;;;;;;5114513;28;20081;-84
2023/07/16 10:51:28;;;;;;;3.95;1.80;;;26.50;69.60;;;;;;5111794;28;20027;-83
2023/07/16 10:53:57;;;;;;;5.40;1.63;;;27.20;68.70;;;;;;5111163;28;20028;-82
2023/07/16 10:56:23;;;;;;;8.90;2.60;;;27.10;70.20;;;;;;5107976;28;20022;-84
2023/07/16 10:58:49;;;;;;;5.13;1.95;;;26.30;70.20;;;;;;5117139;28;20027;-84
2023/07/16 11:01:15;;;;;;;6.47;2.10;;;25.80;72.40;;;;;;5102230;28;20028;-84
2023/07/16 11:03:40;;;;;;;6.28;2.10;;;25.70;71.60;;;;;;5106714;28;20379;-84
2023/07/16 11:06:09;;;;;;;6.50;2.42;;;25.30;72.80;;;;;;5113860;28;20102;-84
2023/07/16 11:08:35;;;;;;;5.55;2.03;;;25.10;72.70;;;;;;5103184;28;20028;-83
2023/07/16 11:11:00;;;;;;;5.80;2.30;;;25.70;71.80;;;;;;5101021;28;20023;-84
2023/07/16 11:13:32;;;;;;;4.72;1.90;;;26.20;69.50;;;;;;5113047;28;20053;-83
2023/07/16 11:16:06;;;;;;;4.80;1.75;;;26.60;69.50;;;;;;5109059;28;20043;-83
2023/07/16 11:18:32;;;;;;;5.60;1.90;;;27.10;68.60;;;;;;5106327;28;20088;-84
2023/07/16 11:20:59;;;;;;;5.45;2.15;;;28.10;67.60;;;;;;5115873;28;20027;-84
2023/07/16 11:23:26;;;;;;;5.40;1.70;;;28.30;64.70;;;;;;5099980;28;20039;-83
2023/07/16 11:25:52;;;;;;;6.50;2.03;;;28.40;65.10;;;;;;5110173;28;20346;-83
2023/07/16 11:28:17;;;;;;;5.88;2.15;;;27.80;65.80;;;;;;5112016;28;20026;-84
2023/07/16 11:30:44;;;;;;;7.15;2.58;;;26.50;66.90;;;;;;5104779;28;20102;-84
2023/07/16 11:33:11;;;;;;;6.68;1.80;;;26.20;68.90;;;;;;5116804;28;20115;-83
2023/07/16 11:35:41;;;;;;;4.68;1.65;;;26.60;69.50;;;;;;5100651;28;20048;-83
2023/07/16 11:38:07;;;;;;;5.25;2.15;;;27.20;67.00;;;;;;5107557;28;20081;-83
2023/07/16 11:40:35;;;;;;;6.18;2.10;;;27.10;67.90;;;;;;5106985;28;20088;-83
2023/07/16 11:43:11;;;;;;;4.75;2.17;;;27.20;67.90;;;;;;5101352;28;20031;-84
2023/07/16 11:45:37;;;;;;;5.05;1.85;;;27.30;67.50;;;;;;5106945;28;20023;-84
2023/07/16 11:48:03;;;;;;;4.22;1.85;;;27.50;66.80;;;;;;5113449;28;20035;-85
2023/07/16 11:50:30;;;;;;;4.20;1.88;;;27.70;67.10;;;;;;5098969;28;20024;-84
2023/07/16 11:53:00;;;;;;;5.80;2.20;;;27.80;67.10;;;;;;5098422;28;20031;-84
2023/07/16 11:55:26;;;;;;;5.10;1.73;;;27.70;67.20;;;;;;5098454;28;20019;-84
2023/07/16 11:57:52;;;;;;;6.10;2.17;;;27.20;67.60;;;;;;5111295;28;20494;-83
2023/07/16 12:00:18;;;;;;;6.03;1.90;;;27.40;68.20;;;;;;5114136;28;20051;-83
2023/07/16 12:02:50;;;;;;;5.05;1.80;;;27.70;67.40;;;;;;5095582;28;20024;-82
2023/07/16 12:05:20;;;;;;;6.07;2.10;;;27.70;66.20;;;;;;5095088;28;20024;-82
2023/07/16 12:07:45;;;;;;;6.47;2.05;;;28.00;66.30;;;;;;5110462;28;20012;-83
2023/07/16 12:10:11;;;;;;;5.88;1.95;;;27.90;66.50;;;;;;5108221;28;20078;-82
2023/07/16 12:12:37;;;;;;;5.55;2.15;;;27.90;67.20;;;;;;5108687;28;20032;-83
2023/07/16 12:15:04;;;;;;;4.88;1.92;;;27.10;66.50;;;;;;5095476;28;20027;-83
2023/07/16 12:17:30;;;;;;;4.35;1.90;;;26.90;67.60;;;;;;5096297;28;20024;-84
2023/07/16 12:19:55;;;;;;;7.55;2.22;;;27.00;69.90;;;;;;5095907;28;20036;-83
2023/07/16 12:22:21;;;;;;;8.00;2.13;;;27.80;67.80;;;;;;5108526;28;20094;-83
2023/07/16 12:24:47;;;;;;;4.35;1.80;;;28.20;67.20;;;;;;5098996;28;20122;-83
2023/07/16 12:27:15;;;;;;;5.03;1.95;;;28.00;65.10;;;;;;5114551;28;20186;-83
2023/07/16 12:29:40;;;;;;;5.20;1.70;;;28.70;65.50;;;;;;5114959;28;20114;-84
2023/07/16 12:32:06;;;;;;;6.10;2.25;;;28.50;65.30;;;;;;5115623;28;20107;-83
2023/07/16 12:34:32;;;;;;;7.57;2.03;;;28.50;64.70;;;;;;5097929;28;20064;-84
2023/07/16 12:36:57;;;;;;;5.20;1.98;;;29.10;64.80;;;;;;5099893;28;20077;-83
2023/07/16 12:39:23;;;;;;;6.85;2.25;;;29.70;64.20;;;;;;5106719;28;20036;-83
2023/07/16 12:41:49;;;;;;;4.47;1.90;;;29.60;61.90;;;;;;5106975;28;20043;-83